sensor_id;sensor_type;location;lat;lon;timestamp;temperature;humidity
22678;DHT22;26259;50.214;18.620;2023-01-29T00:01:05;-1.30;99.90
22678;DHT22;26259;50.214;18.620;2023-01-29T00:03:31;-1.30;99.90
22678;DHT22;26259;50.214;18.620;2023-01-29T00:05:57;-1.30;99.90
22678;DHT22;26259;50.214;18.620;2023-01-29T00:08:23;-1.30;99.90
22678;DHT22;26259;50.214;18.620;2023-01-29T00:10:49;-1.30;99.90
22678;DHT22;26259;50.214;18.620;2023-01-29T00:13:14;-1.30;99.90
22678;DHT22;26259;50.214;18.620;2023-01-29T00:15:40;-1.30;99.90
22678;DHT22;26259;50.214;18.620;2023-01-29T00:18:06;-1.40;99.90
22678;DHT22;26259;50.214;18.620;2023-01-29T00:20:31;-1.30;99.90
22678;DHT22;26259;50.214;18.620;2023-01-29T00:22:58;-1.30;99.90
22678;DHT22;26259;50.214;18.620;2023-01-29T00:25:24;-1.30;99.90
22678;DHT22;26259;50.214;18.620;2023-01-29T00:27:50;-1.30;99.90
22678;DHT22;26259;50.214;18.620;2023-01-29T00:30:15;-1.30;99.90
22678;DHT22;26259;50.214;18.620;2023-01-29T00:32:44;-1.30;99.90
22678;DHT22;26259;50.214;18.620;2023-01-29T00:35:10;-1.30;99.90
22678;DHT22;26259;50.214;18.620;2023-01-29T00:37:36;-1.30;99.90
22678;DHT22;26259;50.214;18.620;2023-01-29T00:40:03;-1.30;99.90
22678;DHT22;26259;50.214;18.620;2023-01-29T00:42:29;-1.40;99.90
22678;DHT22;26259;50.214;18.620;2023-01-29T00:45:13;-1.30;99.90
22678;DHT22;26259;50.214;18.620;2023-01-29T00:47:38;-1.30;99.90
22678;DHT22;26259;50.214;18.620;2023-01-29T00:50:07;-1.30;99.90
22678;DHT22;26259;50.214;18.620;2023-01-29T00:52:33;-1.40;99.90
22678;DHT22;26259;50.214;18.620;2023-01-29T00:55:01;-1.40;99.90
22678;DHT22;26259;50.214;18.620;2023-01-29T00:57:28;-1.40;99.90
22678;DHT22;26259;50.214;18.620;2023-01-29T00:59:54;-1.40;99.90
22678;DHT22;26259;50.214;18.620;2023-01-29T01:02:20;-1.50;99.90
22678;DHT22;26259;50.214;18.620;2023-01-29T01:05:05;-1.50;99.90
22678;DHT22;26259;50.214;18.620;2023-01-29T01:07:32;-1.50;99.90
22678;DHT22;26259;50.214;18.620;2023-01-29T01:09:58;-1.50;99.90
22678;DHT22;26259;50.214;18.620;2023-01-29T01:12:42;-1.60;99.90
22678;DHT22;26259;50.214;18.620;2023-01-29T01:15:08;-1.50;99.90
22678;DHT22;26259;50.214;18.620;2023-01-29T01:17:34;-1.60;99.90
22678;DHT22;26259;50.214;18.620;2023-01-29T01:20:00;-1.60;99.90
22678;DHT22;26259;50.214;18.620;2023-01-29T01:22:26;-1.60;99.90
22678;DHT22;26259;50.214;18.620;2023-01-29T01:24:51;-1.60;99.90
22678;DHT22;26259;50.214;18.620;2023-01-29T01:27:17;-1.50;99.90
22678;DHT22;26259;50.214;18.620;2023-01-29T01:29:44;-1.50;99.90
22678;DHT22;26259;50.214;18.620;2023-01-29T01:32:10;-1.50;99.90
22678;DHT22;26259;50.214;18.620;2023-01-29T01:34:36;-1.60;99.90
22678;DHT22;26259;50.214;18.620;2023-01-29T01:37:02;-1.60;99.90
22678;DHT22;26259;50.214;18.620;2023-01-29T01:39:27;-1.60;99.90
22678;DHT22;26259;50.214;18.620;2023-01-29T01:41:53;-1.50;99.90
22678;DHT22;26259;50.214;18.620;2023-01-29T01:47:16;-1.60;99.90
22678;DHT22;26259;50.214;18.620;2023-01-29T01:49:44;-1.70;99.90
22678;DHT22;26259;50.214;18.620;2023-01-29T01:52:11;-1.70;99.90
22678;DHT22;26259;50.214;18.620;2023-01-29T01:54:37;-1.70;99.90
22678;DHT22;26259;50.214;18.620;2023-01-29T01:57:06;-1.70;99.90
22678;DHT22;26259;50.214;18.620;2023-01-29T01:59:42;-1.70;99.90
22678;DHT22;26259;50.214;18.620;2023-01-29T02:02:11;-1.80;99.90
22678;DHT22;26259;50.214;18.620;2023-01-29T02:04:56;-1.80;99.90
22678;DHT22;26259;50.214;18.620;2023-01-29T02:07:45;-1.80;99.90
22678;DHT22;26259;50.214;18.620;2023-01-29T02:10:35;-1.80;99.90
22678;DHT22;26259;50.214;18.620;2023-01-29T02:13:04;-1.90;99.90
22678;DHT22;26259;50.214;18.620;2023-01-29T02:15:30;-1.80;99.90
22678;DHT22;26259;50.214;18.620;2023-01-29T02:17:56;-1.80;99.90
22678;DHT22;26259;50.214;18.620;2023-01-29T02:20:28;-1.80;99.90
22678;DHT22;26259;50.214;18.620;2023-01-29T02:28:05;-1.80;99.90
22678;DHT22;26259;50.214;18.620;2023-01-29T02:41:45;-1.70;99.90
22678;DHT22;26259;50.214;18.620;2023-01-29T02:44:22;-1.70;99.90
22678;DHT22;26259;50.214;18.620;2023-01-29T02:46:52;-1.70;99.90
22678;DHT22;26259;50.214;18.620;2023-01-29T02:49:30;-1.80;99.90
22678;DHT22;26259;50.214;18.620;2023-01-29T02:52:02;-1.70;99.90
22678;DHT22;26259;50.214;18.620;2023-01-29T02:54:45;-1.70;99.90
22678;DHT22;26259;50.214;18.620;2023-01-29T02:57:24;-1.70;99.90
22678;DHT22;26259;50.214;18.620;2023-01-29T03:00:20;-1.70;99.90
22678;DHT22;26259;50.214;18.620;2023-01-29T03:08:20;-1.70;99.90
22678;DHT22;26259;50.214;18.620;2023-01-29T03:10:52;-1.60;99.90
22678;DHT22;26259;50.214;18.620;2023-01-29T03:13:28;-1.60;99.90
22678;DHT22;26259;50.214;18.620;2023-01-29T03:16:03;-1.60;99.90
22678;DHT22;26259;50.214;18.620;2023-01-29T03:18:35;-1.60;99.90
22678;DHT22;26259;50.214;18.620;2023-01-29T03:21:09;-1.50;99.90
22678;DHT22;26259;50.214;18.620;2023-01-29T03:23:55;-1.50;99.90
22678;DHT22;26259;50.214;18.620;2023-01-29T03:26:42;-1.50;99.90
22678;DHT22;26259;50.214;18.620;2023-01-29T03:29:29;-1.50;99.90
22678;DHT22;26259;50.214;18.620;2023-01-29T03:32:16;-1.50;99.90
22678;DHT22;26259;50.214;18.620;2023-01-29T03:34:49;-1.50;99.90
22678;DHT22;26259;50.214;18.620;2023-01-29T03:37:34;-1.60;99.90
22678;DHT22;26259;50.214;18.620;2023-01-29T03:40:02;-1.60;99.90
22678;DHT22;26259;50.214;18.620;2023-01-29T03:47:45;-1.60;99.90
22678;DHT22;26259;50.214;18.620;2023-01-29T03:50:52;-1.60;99.90
22678;DHT22;26259;50.214;18.620;2023-01-29T04:01:47;-1.50;99.90
22678;DHT22;26259;50.214;18.620;2023-01-29T04:04:23;-1.40;99.90
22678;DHT22;26259;50.214;18.620;2023-01-29T04:06:52;-1.40;99.90
22678;DHT22;26259;50.214;18.620;2023-01-29T04:09:36;-1.40;99.90
22678;DHT22;26259;50.214;18.620;2023-01-29T04:12:07;-1.40;99.90
22678;DHT22;26259;50.214;18.620;2023-01-29T04:14:33;-1.40;99.90
22678;DHT22;26259;50.214;18.620;2023-01-29T04:17:04;-1.40;99.90
22678;DHT22;26259;50.214;18.620;2023-01-29T04:19:33;-1.40;99.90
22678;DHT22;26259;50.214;18.620;2023-01-29T04:22:27;-1.50;99.90
22678;DHT22;26259;50.214;18.620;2023-01-29T04:24:56;-1.50;99.90
22678;DHT22;26259;50.214;18.620;2023-01-29T04:31:11;-1.40;99.90
22678;DHT22;26259;50.214;18.620;2023-01-29T04:33:52;-1.40;99.90
22678;DHT22;26259;50.214;18.620;2023-01-29T04:36:48;-1.40;99.90
22678;DHT22;26259;50.214;18.620;2023-01-29T04:39:39;-1.40;99.90
22678;DHT22;26259;50.214;18.620;2023-01-29T04:42:22;-1.30;99.90
22678;DHT22;26259;50.214;18.620;2023-01-29T04:45:00;-1.30;99.90
22678;DHT22;26259;50.214;18.620;2023-01-29T04:52:44;-1.30;99.90
22678;DHT22;26259;50.214;18.620;2023-01-29T05:00:26;-1.40;99.90
22678;DHT22;26259;50.214;18.620;2023-01-29T05:02:53;-1.30;99.90
22678;DHT22;26259;50.214;18.620;2023-01-29T05:05:19;-1.30;99.90
22678;DHT22;26259;50.214;18.620;2023-01-29T05:07:46;-1.30;99.90
22678;DHT22;26259;50.214;18.620;2023-01-29T05:10:15;-1.40;99.90
22678;DHT22;26259;50.214;18.620;2023-01-29T05:12:45;-1.40;99.90
22678;DHT22;26259;50.214;18.620;2023-01-29T05:15:15;-1.40;99.90
22678;DHT22;26259;50.214;18.620;2023-01-29T05:17:42;-1.40;99.90
22678;DHT22;26259;50.214;18.620;2023-01-29T05:20:10;-1.40;99.90
22678;DHT22;26259;50.214;18.620;2023-01-29T05:22:38;-1.40;99.90
22678;DHT22;26259;50.214;18.620;2023-01-29T05:25:19;-1.40;99.90
22678;DHT22;26259;50.214;18.620;2023-01-29T05:27:45;-1.40;99.90
22678;DHT22;26259;50.214;18.620;2023-01-29T05:30:36;-1.40;99.90
22678;DHT22;26259;50.214;18.620;2023-01-29T05:33:03;-1.40;99.90
22678;DHT22;26259;50.214;18.620;2023-01-29T05:35:29;-1.30;99.90
22678;DHT22;26259;50.214;18.620;2023-01-29T05:37:55;-1.30;99.90
22678;DHT22;26259;50.214;18.620;2023-01-29T05:40:22;-1.30;99.90
22678;DHT22;26259;50.214;18.620;2023-01-29T05:42:48;-1.30;99.90
22678;DHT22;26259;50.214;18.620;2023-01-29T05:45:15;-1.30;99.90
22678;DHT22;26259;50.214;18.620;2023-01-29T05:47:41;-1.40;99.90
22678;DHT22;26259;50.214;18.620;2023-01-29T05:50:07;-1.40;99.90
22678;DHT22;26259;50.214;18.620;2023-01-29T05:52:33;-1.40;99.90
22678;DHT22;26259;50.214;18.620;2023-01-29T05:54:59;-1.30;99.90
22678;DHT22;26259;50.214;18.620;2023-01-29T05:57:24;-1.30;99.90
22678;DHT22;26259;50.214;18.620;2023-01-29T05:59:50;-1.40;99.90
22678;DHT22;26259;50.214;18.620;2023-01-29T06:02:15;-1.30;99.90
22678;DHT22;26259;50.214;18.620;2023-01-29T06:04:41;-1.30;99.90
22678;DHT22;26259;50.214;18.620;2023-01-29T06:07:06;-1.30;99.90
22678;DHT22;26259;50.214;18.620;2023-01-29T06:09:32;-1.30;99.90
22678;DHT22;26259;50.214;18.620;2023-01-29T06:11:58;-1.40;99.90
22678;DHT22;26259;50.214;18.620;2023-01-29T06:14:23;-1.40;99.90
22678;DHT22;26259;50.214;18.620;2023-01-29T06:16:49;-1.40;99.90
22678;DHT22;26259;50.214;18.620;2023-01-29T06:19:14;-1.40;99.90
22678;DHT22;26259;50.214;18.620;2023-01-29T06:21:40;-1.40;99.90
22678;DHT22;26259;50.214;18.620;2023-01-29T06:24:06;-1.30;99.90
22678;DHT22;26259;50.214;18.620;2023-01-29T06:26:31;-1.40;99.90
22678;DHT22;26259;50.214;18.620;2023-01-29T06:28:57;-1.40;99.90
22678;DHT22;26259;50.214;18.620;2023-01-29T06:31:23;-1.50;99.90
22678;DHT22;26259;50.214;18.620;2023-01-29T06:33:48;-1.50;99.90
22678;DHT22;26259;50.214;18.620;2023-01-29T06:36:14;-1.50;99.90
22678;DHT22;26259;50.214;18.620;2023-01-29T06:38:39;-1.60;99.90
22678;DHT22;26259;50.214;18.620;2023-01-29T06:41:15;-1.60;99.90
22678;DHT22;26259;50.214;18.620;2023-01-29T06:43:43;-1.60;99.90
22678;DHT22;26259;50.214;18.620;2023-01-29T06:46:09;-1.60;99.90
22678;DHT22;26259;50.214;18.620;2023-01-29T06:48:35;-1.60;99.90
22678;DHT22;26259;50.214;18.620;2023-01-29T06:51:03;-1.60;99.90
22678;DHT22;26259;50.214;18.620;2023-01-29T06:53:29;-1.60;99.90
22678;DHT22;26259;50.214;18.620;2023-01-29T06:55:54;-1.50;99.90
22678;DHT22;26259;50.214;18.620;2023-01-29T06:58:21;-1.60;99.90
22678;DHT22;26259;50.214;18.620;2023-01-29T07:00:47;-1.60;99.90
22678;DHT22;26259;50.214;18.620;2023-01-29T07:03:13;-1.60;99.90
22678;DHT22;26259;50.214;18.620;2023-01-29T07:05:38;-1.50;99.90
22678;DHT22;26259;50.214;18.620;2023-01-29T07:08:04;-1.50;99.90
22678;DHT22;26259;50.214;18.620;2023-01-29T07:10:30;-1.50;99.90
22678;DHT22;26259;50.214;18.620;2023-01-29T07:12:58;-1.40;99.90
22678;DHT22;26259;50.214;18.620;2023-01-29T07:15:24;-1.50;99.90
22678;DHT22;26259;50.214;18.620;2023-01-29T07:20:24;-1.50;99.90
22678;DHT22;26259;50.214;18.620;2023-01-29T07:22:49;-1.50;99.90
22678;DHT22;26259;50.214;18.620;2023-01-29T07:25:15;-1.50;99.90
22678;DHT22;26259;50.214;18.620;2023-01-29T07:27:41;-1.50;99.90
22678;DHT22;26259;50.214;18.620;2023-01-29T07:30:07;-1.50;99.90
22678;DHT22;26259;50.214;18.620;2023-01-29T07:32:32;-1.50;99.90
22678;DHT22;26259;50.214;18.620;2023-01-29T07:34:58;-1.50;99.90
22678;DHT22;26259;50.214;18.620;2023-01-29T07:37:23;-1.50;99.90
22678;DHT22;26259;50.214;18.620;2023-01-29T07:39:49;-1.50;99.90
22678;DHT22;26259;50.214;18.620;2023-01-29T07:42:15;-1.60;99.90
22678;DHT22;26259;50.214;18.620;2023-01-29T07:44:41;-1.60;99.90
22678;DHT22;26259;50.214;18.620;2023-01-29T07:47:06;-1.60;99.90
22678;DHT22;26259;50.214;18.620;2023-01-29T07:49:32;-1.50;99.90
22678;DHT22;26259;50.214;18.620;2023-01-29T07:51:57;-1.50;99.90
22678;DHT22;26259;50.214;18.620;2023-01-29T07:54:23;-1.40;99.90
22678;DHT22;26259;50.214;18.620;2023-01-29T07:56:48;-1.30;99.90
22678;DHT22;26259;50.214;18.620;2023-01-29T07:59:14;-1.10;99.90
22678;DHT22;26259;50.214;18.620;2023-01-29T08:01:39;-1.10;99.90
22678;DHT22;26259;50.214;18.620;2023-01-29T08:04:05;-0.90;99.90
22678;DHT22;26259;50.214;18.620;2023-01-29T08:06:30;-0.80;99.90
22678;DHT22;26259;50.214;18.620;2023-01-29T08:08:56;-0.70;99.90
22678;DHT22;26259;50.214;18.620;2023-01-29T08:11:22;-0.60;99.90
22678;DHT22;26259;50.214;18.620;2023-01-29T08:13:47;-0.60;99.90
22678;DHT22;26259;50.214;18.620;2023-01-29T08:16:13;-0.50;99.90
22678;DHT22;26259;50.214;18.620;2023-01-29T08:18:39;-0.50;99.90
22678;DHT22;26259;50.214;18.620;2023-01-29T08:21:08;-0.50;99.90
22678;DHT22;26259;50.214;18.620;2023-01-29T08:23:34;-0.40;99.90
22678;DHT22;26259;50.214;18.620;2023-01-29T08:26:01;-0.40;99.90
22678;DHT22;26259;50.214;18.620;2023-01-29T08:28:27;-0.40;99.90
22678;DHT22;26259;50.214;18.620;2023-01-29T08:30:53;-0.30;99.90
22678;DHT22;26259;50.214;18.620;2023-01-29T08:33:19;-0.30;99.90
22678;DHT22;26259;50.214;18.620;2023-01-29T08:35:51;-0.30;99.90
22678;DHT22;26259;50.214;18.620;2023-01-29T08:38:16;-0.20;99.90
22678;DHT22;26259;50.214;18.620;2023-01-29T08:40:42;-0.30;99.90
22678;DHT22;26259;50.214;18.620;2023-01-29T08:43:11;-0.30;99.90
22678;DHT22;26259;50.214;18.620;2023-01-29T08:45:39;-0.30;99.90
22678;DHT22;26259;50.214;18.620;2023-01-29T08:48:05;-0.20;99.90
22678;DHT22;26259;50.214;18.620;2023-01-29T08:50:31;-0.20;99.90
22678;DHT22;26259;50.214;18.620;2023-01-29T08:53:01;-0.20;99.90
22678;DHT22;26259;50.214;18.620;2023-01-29T08:55:28;-0.30;99.90
22678;DHT22;26259;50.214;18.620;2023-01-29T08:57:54;-0.30;99.90
22678;DHT22;26259;50.214;18.620;2023-01-29T09:00:22;-0.20;99.90
22678;DHT22;26259;50.214;18.620;2023-01-29T09:02:47;-0.20;99.90
22678;DHT22;26259;50.214;18.620;2023-01-29T09:05:13;-0.10;99.90
22678;DHT22;26259;50.214;18.620;2023-01-29T09:07:39;-0.10;99.90
22678;DHT22;26259;50.214;18.620;2023-01-29T09:10:05;0.00;99.90
22678;DHT22;26259;50.214;18.620;2023-01-29T09:12:31;0.00;99.90
22678;DHT22;26259;50.214;18.620;2023-01-29T09:14:56;0.00;99.90
22678;DHT22;26259;50.214;18.620;2023-01-29T09:17:22;0.10;99.90
22678;DHT22;26259;50.214;18.620;2023-01-29T09:19:48;0.00;99.90
22678;DHT22;26259;50.214;18.620;2023-01-29T09:22:13;0.00;99.90
22678;DHT22;26259;50.214;18.620;2023-01-29T09:24:39;0.00;99.90
22678;DHT22;26259;50.214;18.620;2023-01-29T09:27:04;0.00;99.90
22678;DHT22;26259;50.214;18.620;2023-01-29T09:29:30;-0.10;99.90
22678;DHT22;26259;50.214;18.620;2023-01-29T09:31:56;-0.10;99.90
22678;DHT22;26259;50.214;18.620;2023-01-29T09:34:22;-0.10;99.90
22678;DHT22;26259;50.214;18.620;2023-01-29T09:36:47;-0.10;99.90
22678;DHT22;26259;50.214;18.620;2023-01-29T09:39:13;0.00;99.90
22678;DHT22;26259;50.214;18.620;2023-01-29T09:41:52;0.10;99.90
22678;DHT22;26259;50.214;18.620;2023-01-29T09:44:45;0.00;99.90
22678;DHT22;26259;50.214;18.620;2023-01-29T09:47:15;-0.10;99.90
22678;DHT22;26259;50.214;18.620;2023-01-29T09:49:51;-0.20;99.90
22678;DHT22;26259;50.214;18.620;2023-01-29T09:52:24;-0.10;99.90
22678;DHT22;26259;50.214;18.620;2023-01-29T10:03:13;-0.10;99.90
22678;DHT22;26259;50.214;18.620;2023-01-29T10:05:54;-0.10;99.90
22678;DHT22;26259;50.214;18.620;2023-01-29T10:11:43;-0.10;99.90
22678;DHT22;26259;50.214;18.620;2023-01-29T10:14:33;-0.20;99.90
22678;DHT22;26259;50.214;18.620;2023-01-29T10:20:00;-0.20;99.90
22678;DHT22;26259;50.214;18.620;2023-01-29T10:22:37;-0.10;99.90
22678;DHT22;26259;50.214;18.620;2023-01-29T10:25:12;0.10;99.90
22678;DHT22;26259;50.214;18.620;2023-01-29T10:27:40;0.10;99.90
22678;DHT22;26259;50.214;18.620;2023-01-29T10:32:51;0.30;99.90
22678;DHT22;26259;50.214;18.620;2023-01-29T10:35:49;0.30;99.90
22678;DHT22;26259;50.214;18.620;2023-01-29T10:38:17;0.40;99.90
22678;DHT22;26259;50.214;18.620;2023-01-29T10:41:38;0.50;99.90
22678;DHT22;26259;50.214;18.620;2023-01-29T10:57:56;0.20;99.90
22678;DHT22;26259;50.214;18.620;2023-01-29T11:00:29;0.10;99.90
22678;DHT22;26259;50.214;18.620;2023-01-29T11:03:38;0.10;99.90
22678;DHT22;26259;50.214;18.620;2023-01-29T11:08:30;0.10;99.90
22678;DHT22;26259;50.214;18.620;2023-01-29T11:11:14;0.20;99.90
22678;DHT22;26259;50.214;18.620;2023-01-29T11:13:56;0.20;99.90
22678;DHT22;26259;50.214;18.620;2023-01-29T11:16:23;0.30;99.90
22678;DHT22;26259;50.214;18.620;2023-01-29T11:18:52;0.30;99.90
22678;DHT22;26259;50.214;18.620;2023-01-29T11:21:18;0.30;99.90
22678;DHT22;26259;50.214;18.620;2023-01-29T11:23:44;0.30;99.90
22678;DHT22;26259;50.214;18.620;2023-01-29T11:26:12;0.30;99.90
22678;DHT22;26259;50.214;18.620;2023-01-29T11:28:44;0.50;99.90
22678;DHT22;26259;50.214;18.620;2023-01-29T11:31:35;0.60;99.90
22678;DHT22;26259;50.214;18.620;2023-01-29T11:34:05;0.60;99.90
22678;DHT22;26259;50.214;18.620;2023-01-29T11:36:36;0.50;99.90
22678;DHT22;26259;50.214;18.620;2023-01-29T11:39:22;0.50;99.90
22678;DHT22;26259;50.214;18.620;2023-01-29T11:42:04;0.50;99.90
22678;DHT22;26259;50.214;18.620;2023-01-29T11:44:40;0.50;99.90
22678;DHT22;26259;50.214;18.620;2023-01-29T11:47:20;0.60;99.90
22678;DHT22;26259;50.214;18.620;2023-01-29T11:49:55;0.60;98.90
22678;DHT22;26259;50.214;18.620;2023-01-29T11:52:23;0.70;99.90
22678;DHT22;26259;50.214;18.620;2023-01-29T11:55:00;0.80;99.90
22678;DHT22;26259;50.214;18.620;2023-01-29T11:57:27;0.80;98.20
22678;DHT22;26259;50.214;18.620;2023-01-29T12:00:05;0.70;96.80
22678;DHT22;26259;50.214;18.620;2023-01-29T12:02:42;0.70;97.00
22678;DHT22;26259;50.214;18.620;2023-01-29T12:05:20;0.80;97.00
22678;DHT22;26259;50.214;18.620;2023-01-29T12:07:48;1.00;97.90
22678;DHT22;26259;50.214;18.620;2023-01-29T12:15:37;1.00;93.20
22678;DHT22;26259;50.214;18.620;2023-01-29T12:18:22;0.80;94.20
22678;DHT22;26259;50.214;18.620;2023-01-29T12:21:00;0.60;96.40
22678;DHT22;26259;50.214;18.620;2023-01-29T12:26:35;0.80;98.20
22678;DHT22;26259;50.214;18.620;2023-01-29T12:29:17;1.00;98.00
22678;DHT22;26259;50.214;18.620;2023-01-29T12:34:44;1.00;98.10
22678;DHT22;26259;50.214;18.620;2023-01-29T12:39:45;1.00;97.70
22678;DHT22;26259;50.214;18.620;2023-01-29T12:42:19;0.90;99.90
22678;DHT22;26259;50.214;18.620;2023-01-29T12:45:00;1.00;99.90
22678;DHT22;26259;50.214;18.620;2023-01-29T12:47:31;1.00;99.90
22678;DHT22;26259;50.214;18.620;2023-01-29T12:50:05;1.00;99.90
22678;DHT22;26259;50.214;18.620;2023-01-29T12:53:19;1.00;99.90
22678;DHT22;26259;50.214;18.620;2023-01-29T12:58:28;0.90;99.90
22678;DHT22;26259;50.214;18.620;2023-01-29T13:00:59;1.00;99.90
22678;DHT22;26259;50.214;18.620;2023-01-29T13:03:48;0.90;99.90
22678;DHT22;26259;50.214;18.620;2023-01-29T13:06:19;1.00;99.90
22678;DHT22;26259;50.214;18.620;2023-01-29T13:08:47;0.90;99.90
22678;DHT22;26259;50.214;18.620;2023-01-29T13:11:32;1.00;99.90
22678;DHT22;26259;50.214;18.620;2023-01-29T13:16:43;1.00;99.90
22678;DHT22;26259;50.214;18.620;2023-01-29T13:19:31;1.00;99.90
22678;DHT22;26259;50.214;18.620;2023-01-29T13:22:01;1.00;99.90
22678;DHT22;26259;50.214;18.620;2023-01-29T13:24:38;0.90;99.90
22678;DHT22;26259;50.214;18.620;2023-01-29T13:27:05;0.80;99.90
22678;DHT22;26259;50.214;18.620;2023-01-29T13:29:31;0.80;99.90
22678;DHT22;26259;50.214;18.620;2023-01-29T13:32:02;0.80;99.90
22678;DHT22;26259;50.214;18.620;2023-01-29T13:34:31;0.90;99.90
22678;DHT22;26259;50.214;18.620;2023-01-29T13:37:17;0.90;99.90
22678;DHT22;26259;50.214;18.620;2023-01-29T13:39:50;0.90;99.90
22678;DHT22;26259;50.214;18.620;2023-01-29T13:44:51;1.00;99.90
22678;DHT22;26259;50.214;18.620;2023-01-29T13:47:30;1.00;99.90
22678;DHT22;26259;50.214;18.620;2023-01-29T13:50:35;1.00;99.90
22678;DHT22;26259;50.214;18.620;2023-01-29T13:53:00;1.00;99.90
22678;DHT22;26259;50.214;18.620;2023-01-29T13:55:30;1.00;99.90
22678;DHT22;26259;50.214;18.620;2023-01-29T13:58:01;0.90;99.90
22678;DHT22;26259;50.214;18.620;2023-01-29T14:05:44;0.80;99.90
22678;DHT22;26259;50.214;18.620;2023-01-29T14:13:40;0.70;99.90
22678;DHT22;26259;50.214;18.620;2023-01-29T14:18:58;0.60;99.90
22678;DHT22;26259;50.214;18.620;2023-01-29T14:21:27;0.60;99.90
22678;DHT22;26259;50.214;18.620;2023-01-29T14:23:58;0.50;99.90
22678;DHT22;26259;50.214;18.620;2023-01-29T14:26:42;0.50;99.90
22678;DHT22;26259;50.214;18.620;2023-01-29T14:32:20;0.40;99.90
22678;DHT22;26259;50.214;18.620;2023-01-29T14:34:43;0.40;99.90
22678;DHT22;26259;50.214;18.620;2023-01-29T14:39:47;0.30;99.90
22678;DHT22;26259;50.214;18.620;2023-01-29T14:55:49;0.10;99.90
22678;DHT22;26259;50.214;18.620;2023-01-29T15:01:00;0.00;99.90
22678;DHT22;26259;50.214;18.620;2023-01-29T15:06:03;-0.10;99.90
22678;DHT22;26259;50.214;18.620;2023-01-29T15:08:42;-0.10;99.90
22678;DHT22;26259;50.214;18.620;2023-01-29T15:11:34;0.00;99.90
22678;DHT22;26259;50.214;18.620;2023-01-29T15:14:20;-0.10;99.90
22678;DHT22;26259;50.214;18.620;2023-01-29T15:17:06;-0.10;99.90
22678;DHT22;26259;50.214;18.620;2023-01-29T15:19:43;-0.10;99.90
22678;DHT22;26259;50.214;18.620;2023-01-29T15:22:20;-0.10;99.90
22678;DHT22;26259;50.214;18.620;2023-01-29T15:25:01;-0.10;99.90
22678;DHT22;26259;50.214;18.620;2023-01-29T15:27:27;-0.20;99.90
22678;DHT22;26259;50.214;18.620;2023-01-29T15:29:58;-0.20;99.90
22678;DHT22;26259;50.214;18.620;2023-01-29T15:32:34;-0.20;99.90
22678;DHT22;26259;50.214;18.620;2023-01-29T15:38:00;-0.20;99.90
22678;DHT22;26259;50.214;18.620;2023-01-29T15:40:26;-0.20;99.90
22678;DHT22;26259;50.214;18.620;2023-01-29T15:42:52;-0.30;99.90
22678;DHT22;26259;50.214;18.620;2023-01-29T15:45:43;-0.30;99.90
22678;DHT22;26259;50.214;18.620;2023-01-29T15:48:19;-0.20;99.90
22678;DHT22;26259;50.214;18.620;2023-01-29T15:50:49;-0.30;99.90
22678;DHT22;26259;50.214;18.620;2023-01-29T15:53:29;-0.30;99.90
22678;DHT22;26259;50.214;18.620;2023-01-29T15:55:57;-0.30;99.90
22678;DHT22;26259;50.214;18.620;2023-01-29T15:58:29;-0.30;99.90
22678;DHT22;26259;50.214;18.620;2023-01-29T16:00:57;-0.40;99.90
22678;DHT22;26259;50.214;18.620;2023-01-29T16:03:25;-0.40;99.90
22678;DHT22;26259;50.214;18.620;2023-01-29T16:05:53;-0.40;99.90
22678;DHT22;26259;50.214;18.620;2023-01-29T16:08:20;-0.40;99.90
22678;DHT22;26259;50.214;18.620;2023-01-29T16:10:54;-0.40;99.90
22678;DHT22;26259;50.214;18.620;2023-01-29T16:13:26;-0.50;99.90
22678;DHT22;26259;50.214;18.620;2023-01-29T16:16:01;-0.40;99.90
22678;DHT22;26259;50.214;18.620;2023-01-29T16:18:35;-0.50;99.90
22678;DHT22;26259;50.214;18.620;2023-01-29T16:21:09;-0.50;99.90
22678;DHT22;26259;50.214;18.620;2023-01-29T16:23:48;-0.50;99.90
22678;DHT22;26259;50.214;18.620;2023-01-29T16:26:20;-0.40;99.90
22678;DHT22;26259;50.214;18.620;2023-01-29T16:28:46;-0.40;99.90
22678;DHT22;26259;50.214;18.620;2023-01-29T16:31:13;-0.40;99.90
22678;DHT22;26259;50.214;18.620;2023-01-29T16:33:44;-0.50;99.90
22678;DHT22;26259;50.214;18.620;2023-01-29T16:36:16;-0.50;99.90
22678;DHT22;26259;50.214;18.620;2023-01-29T16:38:53;-0.50;99.90
22678;DHT22;26259;50.214;18.620;2023-01-29T16:43:56;-0.50;99.90
22678;DHT22;26259;50.214;18.620;2023-01-29T16:46:46;-0.40;99.90
22678;DHT22;26259;50.214;18.620;2023-01-29T16:51:50;-0.30;99.90
22678;DHT22;26259;50.214;18.620;2023-01-29T16:54:20;-0.30;99.90
22678;DHT22;26259;50.214;18.620;2023-01-29T16:56:50;-0.30;99.90
22678;DHT22;26259;50.214;18.620;2023-01-29T16:59:33;-0.30;99.90
22678;DHT22;26259;50.214;18.620;2023-01-29T17:01:59;-0.20;99.90
22678;DHT22;26259;50.214;18.620;2023-01-29T17:04:25;-0.20;99.90
22678;DHT22;26259;50.214;18.620;2023-01-29T17:07:00;-0.20;99.90
22678;DHT22;26259;50.214;18.620;2023-01-29T17:09:30;-0.10;99.90
22678;DHT22;26259;50.214;18.620;2023-01-29T17:12:02;-0.20;99.90
22678;DHT22;26259;50.214;18.620;2023-01-29T17:14:30;-0.20;99.90
22678;DHT22;26259;50.214;18.620;2023-01-29T17:17:13;-0.10;99.90
22678;DHT22;26259;50.214;18.620;2023-01-29T17:19:39;-0.20;99.90
22678;DHT22;26259;50.214;18.620;2023-01-29T17:22:06;-0.10;99.90
22678;DHT22;26259;50.214;18.620;2023-01-29T17:24:42;-0.10;99.90
22678;DHT22;26259;50.214;18.620;2023-01-29T17:27:21;-0.20;99.90
22678;DHT22;26259;50.214;18.620;2023-01-29T17:29:47;-0.10;99.90
22678;DHT22;26259;50.214;18.620;2023-01-29T17:32:16;-0.10;99.90
22678;DHT22;26259;50.214;18.620;2023-01-29T17:34:43;-0.10;99.90
22678;DHT22;26259;50.214;18.620;2023-01-29T17:37:13;-0.10;99.90
22678;DHT22;26259;50.214;18.620;2023-01-29T17:39:40;-0.10;99.90
22678;DHT22;26259;50.214;18.620;2023-01-29T17:42:10;-0.10;99.90
22678;DHT22;26259;50.214;18.620;2023-01-29T17:44:36;-0.10;99.90
22678;DHT22;26259;50.214;18.620;2023-01-29T17:47:02;-0.10;99.90
22678;DHT22;26259;50.214;18.620;2023-01-29T17:49:30;-0.10;99.90
22678;DHT22;26259;50.214;18.620;2023-01-29T17:51:58;-0.10;99.90
22678;DHT22;26259;50.214;18.620;2023-01-29T17:54:24;-0.20;99.90
22678;DHT22;26259;50.214;18.620;2023-01-29T17:56:51;-0.20;99.90
22678;DHT22;26259;50.214;18.620;2023-01-29T17:59:22;-0.20;99.90
22678;DHT22;26259;50.214;18.620;2023-01-29T18:01:49;-0.30;99.90
22678;DHT22;26259;50.214;18.620;2023-01-29T18:04:15;-0.20;99.90
22678;DHT22;26259;50.214;18.620;2023-01-29T18:06:42;-0.20;99.90
22678;DHT22;26259;50.214;18.620;2023-01-29T18:09:16;-0.30;99.90
22678;DHT22;26259;50.214;18.620;2023-01-29T18:11:43;-0.30;99.90
22678;DHT22;26259;50.214;18.620;2023-01-29T18:14:09;-0.30;99.90
22678;DHT22;26259;50.214;18.620;2023-01-29T18:16:37;-0.30;99.90
22678;DHT22;26259;50.214;18.620;2023-01-29T18:19:17;-0.20;99.90
22678;DHT22;26259;50.214;18.620;2023-01-29T18:21:43;-0.30;99.90